West Candor, New York
Current Conditions -  °F | °C
As of 5:53 PM on Wednesday 17 Dec 2014 (Local Time) from KBGM Reporting Station
Overcast Overcast  
Wind Chill: 26°   Ceiling: 3900
Heat Index: 32°   Visibility: 10mi
Dew Point: 31°   Wind: 6mph
Humidity: 96%   Direction: 290°WNW
Pressure: 29.85"   Gusts: NA
Location:  42.2148°N, 76.3401°W
Report Text: KBGM 172253Z 29005KT 10SM FEW012 BKN039 OVC110 00/M01 A2985 RMK AO2 SNE02 SLP124 P0000 T00001006
Loading
Personal Weather Stations






























Interactive Weather Map New forecast layout! Learn more

10-Day Weather Forecast

Advertisements
Track Severe Weather on mobile